Time;durP1;ratioP1;P1;durP2;ratioP2;P2;SDS_P1;SDS_P2;PMS_P1;PMS_P2;Temp;Humidity;BMP_temperature;BMP_pressure;BME280_temperature;BME280_humidity;BME280_pressure;Samples;Min_cycle;Max_cycle;Signal;HPM_P1;HPM_P2
2024/03/02 00:00:27;;;;;;;14.98;3.58;;;27.50;52.70;;;;;;5104338;27;20071;-57
2024/03/02 00:02:53;;;;;;;18.15;4.10;;;27.60;52.60;;;;;;5109041;28;20101;-46
2024/03/02 00:05:22;;;;;;;15.77;3.10;;;27.50;52.70;;;;;;5107652;28;20080;-45
2024/03/02 00:07:59;;;;;;;14.57;3.20;;;27.40;52.60;;;;;;5108810;28;20096;-47
2024/03/02 00:10:29;;;;;;;21.23;3.42;;;27.20;52.80;;;;;;5105954;28;20072;-46
2024/03/02 00:12:59;;;;;;;18.77;3.78;;;27.10;53.10;;;;;;5102849;28;20273;-48
2024/03/02 00:15:49;;;;;;;23.15;3.47;;;27.10;52.90;;;;;;5102803;28;20105;-47
2024/03/02 00:18:39;;;;;;;23.33;3.85;;;27.00;53.20;;;;;;5106010;28;20108;-50
2024/03/02 00:21:10;;;;;;;21.33;3.78;;;26.90;53.70;;;;;;5110831;28;20080;-47
2024/03/02 00:23:37;;;;;;;16.20;3.50;;;26.80;53.40;;;;;;5108441;28;20064;-46
2024/03/02 00:26:05;;;;;;;16.77;3.65;;;26.80;53.40;;;;;;5109856;28;20087;-47
2024/03/02 00:28:36;;;;;;;21.67;3.60;;;26.60;53.60;;;;;;5109535;28;20075;-47
2024/03/02 00:31:07;;;;;;;23.80;7.40;;;26.60;53.80;;;;;;5107697;28;20068;-47
2024/03/02 00:33:45;;;;;;;16.58;3.33;;;26.60;54.10;;;;;;5107878;28;20076;-47
2024/03/02 00:36:14;;;;;;;27.63;4.15;;;26.50;54.10;;;;;;5099911;28;20609;-47
2024/03/02 00:38:49;;;;;;;25.13;3.47;;;26.50;54.10;;;;;;5102281;28;20452;-47
2024/03/02 00:41:24;;;;;;;13.38;3.25;;;26.40;53.90;;;;;;5109377;28;20083;-50
2024/03/02 00:44:01;;;;;;;24.98;8.15;;;26.30;54.80;;;;;;5110465;28;20067;-49
2024/03/02 00:46:38;;;;;;;13.70;3.13;;;26.20;54.30;;;;;;5106898;28;20082;-49
2024/03/02 00:49:21;;;;;;;12.90;2.72;;;26.00;55.30;;;;;;5105769;28;20072;-44
2024/03/02 00:51:49;;;;;;;18.10;2.97;;;25.90;54.70;;;;;;5102344;28;20068;-46
2024/03/02 00:54:24;;;;;;;19.23;2.92;;;25.90;54.70;;;;;;5111481;28;20080;-49
2024/03/02 00:56:51;;;;;;;31.30;12.35;;;25.90;54.40;;;;;;5106640;28;20068;-50
2024/03/02 00:59:18;;;;;;;26.23;3.42;;;25.80;54.70;;;;;;5093946;28;20102;-46
2024/03/02 01:01:44;;;;;;;16.45;3.45;;;25.80;55.00;;;;;;5109350;28;20064;-45
2024/03/02 01:04:11;;;;;;;25.80;3.83;;;25.70;54.60;;;;;;5107628;28;20155;-46
2024/03/02 01:06:38;;;;;;;19.23;3.60;;;25.60;55.20;;;;;;5107005;28;20147;-47
2024/03/02 01:09:04;;;;;;;38.55;18.88;;;25.50;55.20;;;;;;5108275;28;20090;-46
2024/03/02 01:11:31;;;;;;;31.73;8.20;;;25.50;55.60;;;;;;5102678;28;20061;-50
2024/03/02 01:13:57;;;;;;;37.92;9.18;;;25.40;55.80;;;;;;5096952;28;20585;-49
2024/03/02 01:16:24;;;;;;;21.42;3.80;;;25.30;55.70;;;;;;5094571;28;20068;-47
2024/03/02 01:18:50;;;;;;;17.02;3.28;;;25.30;55.60;;;;;;5091453;28;20108;-48
2024/03/02 01:21:17;;;;;;;47.42;18.45;;;25.20;55.50;;;;;;5097760;28;20073;-49
2024/03/02 01:23:43;;;;;;;24.23;7.10;;;25.10;55.60;;;;;;5104360;28;20103;-48
2024/03/02 01:26:10;;;;;;;26.45;6.63;;;25.00;55.90;;;;;;5105507;28;20436;-51
2024/03/02 01:28:37;;;;;;;17.80;4.05;;;24.90;56.30;;;;;;5109836;28;20068;-48
2024/03/02 01:31:03;;;;;;;17.80;3.30;;;24.80;56.40;;;;;;5109085;28;20064;-47
2024/03/02 01:33:30;;;;;;;21.13;3.65;;;24.80;56.50;;;;;;5094790;28;20073;-51
2024/03/02 01:35:56;;;;;;;12.35;2.78;;;24.70;57.30;;;;;;5104236;28;20473;-46
2024/03/02 01:38:23;;;;;;;13.88;3.00;;;24.70;56.70;;;;;;5108763;28;20107;-48
2024/03/02 01:40:49;;;;;;;30.65;4.03;;;24.60;56.70;;;;;;5094665;28;20077;-47
2024/03/02 01:43:16;;;;;;;21.40;3.78;;;24.50;56.80;;;;;;5092600;28;20537;-47
2024/03/02 01:45:42;;;;;;;28.58;4.00;;;24.40;56.80;;;;;;5105359;28;20510;-47
2024/03/02 01:48:09;;;;;;;30.65;13.25;;;24.40;57.00;;;;;;5104705;28;20100;-50
2024/03/02 01:50:36;;;;;;;40.08;12.82;;;24.30;57.30;;;;;;5107356;28;20072;-49
2024/03/02 01:53:03;;;;;;;29.42;9.10;;;24.20;57.50;;;;;;5094969;28;20075;-51
2024/03/02 01:55:30;;;;;;;44.10;16.40;;;24.10;57.70;;;;;;5112092;28;20064;-49
2024/03/02 01:57:57;;;;;;;38.83;16.30;;;24.00;58.10;;;;;;5097587;28;20164;-47
2024/03/02 02:00:26;;;;;;;40.45;17.98;;;24.00;58.30;;;;;;5102041;28;20110;-50
2024/03/02 02:02:53;;;;;;;119.88;84.45;;;23.90;58.90;;;;;;5101068;28;20072;-46
2024/03/02 02:05:19;;;;;;;103.15;82.30;;;23.70;59.90;;;;;;5099170;28;20074;-48
2024/03/02 02:07:46;;;;;;;65.28;37.63;;;23.40;60.30;;;;;;5111020;28;20532;-47
2024/03/02 02:10:12;;;;;;;38.35;7.70;;;23.20;60.90;;;;;;5113393;28;20072;-47
2024/03/02 02:12:39;;;;;;;47.95;9.85;;;23.10;60.40;;;;;;5111905;28;20100;-47
2024/03/02 02:15:27;;;;;;;30.85;6.38;;;23.00;60.30;;;;;;5111367;28;20080;-47
2024/03/02 02:17:57;;;;;;;41.47;5.55;;;23.00;59.30;;;;;;5102790;28;20108;-47
2024/03/02 02:20:24;;;;;;;29.33;4.68;;;23.00;59.20;;;;;;5109346;28;20080;-46
2024/03/02 02:22:58;;;;;;;28.77;8.05;;;22.90;58.20;;;;;;5106545;28;20064;-47
2024/03/02 02:25:26;;;;;;;18.73;4.20;;;22.80;58.10;;;;;;5107120;28;20103;-46
2024/03/02 02:27:53;;;;;;;20.15;3.42;;;22.70;56.80;;;;;;5100928;28;20072;-53
2024/03/02 02:30:27;;;;;;;17.02;3.05;;;22.60;55.30;;;;;;5110210;27;20421;-48
2024/03/02 02:32:54;;;;;;;12.07;3.20;;;22.60;55.80;;;;;;5109380;28;20064;-52
2024/03/02 02:35:20;;;;;;;12.10;2.65;;;22.50;55.70;;;;;;5114140;28;20490;-50
2024/03/02 02:37:48;;;;;;;24.02;3.60;;;22.50;56.10;;;;;;5106015;27;20171;-48
2024/03/02 02:40:15;;;;;;;23.48;3.55;;;22.40;56.40;;;;;;5105992;28;20138;-50
2024/03/02 02:42:42;;;;;;;25.05;3.88;;;22.30;57.10;;;;;;5104844;27;20073;-61
2024/03/02 02:45:09;;;;;;;16.27;3.30;;;22.30;57.50;;;;;;5108394;28;20065;-50
2024/03/02 02:47:35;;;;;;;17.25;3.38;;;22.30;57.70;;;;;;5108176;28;20072;-51
2024/03/02 02:50:04;;;;;;;15.57;2.83;;;22.30;58.60;;;;;;5110132;28;20140;-52
2024/03/02 02:52:36;;;;;;;19.00;3.35;;;22.10;58.50;;;;;;5108868;28;20064;-50
2024/03/02 02:55:06;;;;;;;31.50;3.70;;;22.00;59.20;;;;;;5108795;27;20583;-49
2024/03/02 02:57:37;;;;;;;21.65;7.82;;;21.80;59.10;;;;;;5099082;28;20073;-53
2024/03/02 03:00:14;;;;;;;17.02;2.90;;;21.70;59.20;;;;;;5100438;28;20161;-49
2024/03/02 03:02:44;;;;;;;10.43;3.10;;;21.60;59.70;;;;;;5099152;28;20080;-53
2024/03/02 03:05:12;;;;;;;13.13;3.00;;;21.70;59.80;;;;;;5091943;28;20137;-48
2024/03/02 03:07:43;;;;;;;14.05;2.90;;;21.70;59.80;;;;;;5095487;28;20076;-50
2024/03/02 03:10:11;;;;;;;33.67;4.05;;;21.60;60.10;;;;;;5112161;28;20072;-58
2024/03/02 03:12:37;;;;;;;22.20;3.80;;;21.60;60.90;;;;;;5104080;28;20076;-53
2024/03/02 03:15:06;;;;;;;33.17;8.57;;;21.50;61.00;;;;;;5094104;28;20086;-49
2024/03/02 03:17:33;;;;;;;22.17;3.60;;;21.50;61.80;;;;;;5091001;28;20216;-48
2024/03/02 03:20:00;;;;;;;18.77;3.17;;;21.40;61.80;;;;;;5112797;28;20103;-50
2024/03/02 03:22:27;;;;;;;24.02;3.83;;;21.30;62.30;;;;;;5108793;28;20421;-50
2024/03/02 03:24:53;;;;;;;20.88;3.83;;;21.30;62.50;;;;;;5114314;28;20100;-52
2024/03/02 03:27:20;;;;;;;22.52;3.85;;;21.20;62.90;;;;;;5111948;28;20109;-49
2024/03/02 03:29:46;;;;;;;17.45;4.45;;;21.10;63.50;;;;;;5114841;28;20064;-52
2024/03/02 03:32:13;;;;;;;28.42;6.25;;;21.00;64.20;;;;;;5114830;27;20056;-50
2024/03/02 03:34:40;;;;;;;38.00;7.13;;;20.80;64.70;;;;;;5114009;28;20080;-51
2024/03/02 03:37:06;;;;;;;40.17;7.10;;;20.70;65.60;;;;;;5113687;28;20083;-50
2024/03/02 03:39:35;;;;;;;30.42;5.10;;;20.60;66.10;;;;;;5097007;28;20152;-51
2024/03/02 03:42:02;;;;;;;33.83;5.05;;;20.50;67.20;;;;;;5091992;28;20511;-51
2024/03/02 03:44:29;;;;;;;27.90;5.00;;;20.40;67.70;;;;;;5103503;28;20072;-50
2024/03/02 03:46:55;;;;;;;25.85;5.40;;;20.40;68.30;;;;;;5112018;28;20068;-49
2024/03/02 03:49:21;;;;;;;23.05;5.28;;;20.30;68.50;;;;;;5095585;28;20072;-51
2024/03/02 03:51:48;;;;;;;19.92;5.65;;;20.20;69.10;;;;;;5113524;28;20452;-49
2024/03/02 03:54:14;;;;;;;23.15;4.80;;;20.10;69.90;;;;;;5105946;28;20068;-50
2024/03/02 03:56:41;;;;;;;23.67;4.63;;;20.00;70.30;;;;;;5093288;28;20537;-52
2024/03/02 03:59:08;;;;;;;19.60;4.50;;;20.00;70.20;;;;;;5093080;28;20135;-49
2024/03/02 04:01:34;;;;;;;27.88;4.68;;;20.00;70.50;;;;;;5091349;28;20068;-52
2024/03/02 04:04:04;;;;;;;20.13;3.78;;;19.90;70.80;;;;;;5093400;28;20167;-51
2024/03/02 04:06:30;;;;;;;15.30;3.10;;;19.80;70.50;;;;;;5090542;28;20084;-51
2024/03/02 04:08:57;;;;;;;15.32;4.05;;;19.80;70.40;;;;;;5093082;28;20068;-50
2024/03/02 04:11:23;;;;;;;15.05;3.85;;;19.90;70.40;;;;;;5093286;28;20072;-54
2024/03/02 04:13:50;;;;;;;12.63;3.60;;;19.90;69.70;;;;;;5096672;27;20194;-54
2024/03/02 04:16:16;;;;;;;10.13;3.65;;;19.90;69.60;;;;;;5108758;28;20449;-57
2024/03/02 04:18:43;;;;;;;14.15;4.20;;;19.90;69.20;;;;;;5108641;28;20248;-55
2024/03/02 04:21:09;;;;;;;15.85;3.50;;;19.80;69.20;;;;;;5092586;28;20167;-53
2024/03/02 04:23:35;;;;;;;12.93;3.25;;;19.80;68.60;;;;;;5108863;28;20083;-53
2024/03/02 04:26:02;;;;;;;11.38;3.30;;;19.80;68.50;;;;;;5092656;28;20065;-55
2024/03/02 04:28:28;;;;;;;12.52;3.13;;;19.80;68.90;;;;;;5112900;27;20369;-51
2024/03/02 04:30:55;;;;;;;12.13;3.60;;;19.70;68.70;;;;;;5112137;28;20498;-57
2024/03/02 04:33:21;;;;;;;18.42;3.85;;;19.60;69.10;;;;;;5113268;28;20147;-51
2024/03/02 04:35:48;;;;;;;23.42;3.75;;;19.60;69.60;;;;;;5112845;28;20151;-54
2024/03/02 04:38:14;;;;;;;18.52;3.30;;;19.50;70.30;;;;;;5110522;28;20121;-52
2024/03/02 04:40:41;;;;;;;27.77;3.50;;;19.40;70.70;;;;;;5113603;28;20460;-52
2024/03/02 04:43:09;;;;;;;31.50;17.17;;;19.30;71.60;;;;;;5112561;28;20060;-52
2024/03/02 04:45:38;;;;;;;16.92;3.08;;;19.30;71.80;;;;;;5108089;28;20111;-52
2024/03/02 04:48:05;;;;;;;17.38;3.08;;;19.20;72.20;;;;;;5092051;28;20075;-50
2024/03/02 04:50:32;;;;;;;11.95;3.08;;;19.10;72.40;;;;;;5092027;28;20096;-53
2024/03/02 04:52:58;;;;;;;23.17;3.20;;;19.00;72.80;;;;;;5092000;28;20068;-49
2024/03/02 04:57:57;;;;;;;8.05;2.70;;;18.90;73.40;;;;;;5092375;28;20476;-51
2024/03/02 05:00:23;;;;;;;12.60;2.90;;;18.80;73.70;;;;;;5091783;28;20114;-50
2024/03/02 05:02:50;;;;;;;12.68;2.90;;;18.70;74.10;;;;;;5102949;28;20432;-48
2024/03/02 05:05:17;;;;;;;17.55;5.53;;;18.70;74.40;;;;;;5112051;28;20080;-50
2024/03/02 05:07:44;;;;;;;15.25;2.88;;;18.60;74.50;;;;;;5109702;28;20068;-53
2024/03/02 05:10:14;;;;;;;7.35;2.40;;;18.60;74.40;;;;;;5110834;28;20553;-51
2024/03/02 05:15:07;;;;;;;16.40;2.78;;;18.40;74.30;;;;;;5112164;28;20174;-51
2024/03/02 05:17:34;;;;;;;19.58;2.92;;;18.30;74.70;;;;;;5112043;28;20120;-48
2024/03/02 05:20:01;;;;;;;14.75;2.60;;;18.30;75.00;;;;;;5111803;28;20095;-48
2024/03/02 05:22:27;;;;;;;26.95;3.67;;;18.30;75.00;;;;;;5111830;28;20064;-49
2024/03/02 05:24:54;;;;;;;34.78;3.40;;;18.20;75.30;;;;;;5110148;28;20068;-52
2024/03/02 05:27:20;;;;;;;16.88;3.65;;;18.10;75.30;;;;;;5109847;28;20406;-49
2024/03/02 05:29:47;;;;;;;23.83;3.65;;;18.10;75.60;;;;;;5102004;28;20079;-57
2024/03/02 05:32:13;;;;;;;17.33;3.17;;;18.10;75.40;;;;;;5105447;28;20072;-60
2024/03/02 05:34:40;;;;;;;25.23;4.05;;;18.00;75.80;;;;;;5105379;28;20073;-62
2024/03/02 05:37:07;;;;;;;16.52;3.00;;;17.90;75.70;;;;;;5086184;28;20103;-66
2024/03/02 05:39:34;;;;;;;13.80;2.47;;;17.90;75.90;;;;;;5104960;28;20088;-60
2024/03/02 05:42:00;;;;;;;13.52;2.55;;;17.90;76.10;;;;;;5110431;28;20068;-52
2024/03/02 05:44:27;;;;;;;14.48;2.58;;;17.80;76.20;;;;;;5113525;28;20072;-57
2024/03/02 05:46:54;;;;;;;22.42;3.30;;;17.70;76.30;;;;;;5109429;28;20367;-60
2024/03/02 05:49:21;;;;;;;18.33;2.83;;;17.80;76.10;;;;;;5101921;28;20081;-55
2024/03/02 05:51:47;;;;;;;26.13;4.38;;;17.70;76.30;;;;;;5107631;27;20083;-56
2024/03/02 05:54:14;;;;;;;16.95;3.28;;;17.70;76.20;;;;;;5109340;27;20064;-53
2024/03/02 05:56:40;;;;;;;20.88;2.65;;;17.70;75.80;;;;;;5103371;28;20064;-55
2024/03/02 05:59:15;;;;;;;25.25;2.90;;;17.70;75.90;;;;;;5105935;28;20453;-53
2024/03/02 06:01:51;;;;;;;16.25;2.60;;;17.70;76.00;;;;;;5110945;27;20064;-56
2024/03/02 06:04:18;;;;;;;18.53;2.40;;;17.70;75.60;;;;;;5120911;27;20355;-54
2024/03/02 06:06:45;;;;;;;15.90;2.53;;;17.70;75.80;;;;;;5110279;28;20311;-60
2024/03/02 06:09:14;;;;;;;37.15;18.70;;;17.70;75.50;;;;;;5110070;27;20068;-54
2024/03/02 06:11:41;;;;;;;16.58;2.88;;;17.70;75.50;;;;;;5107806;28;20072;-53
2024/03/02 06:14:09;;;;;;;30.20;15.43;;;17.60;75.30;;;;;;5103055;28;20084;-61
2024/03/02 06:16:35;;;;;;;11.52;3.10;;;17.70;74.70;;;;;;5107783;28;20087;-55
2024/03/02 06:19:02;;;;;;;37.45;17.50;;;17.70;74.50;;;;;;5112070;28;20104;-57
2024/03/02 06:21:29;;;;;;;34.03;17.85;;;17.70;74.40;;;;;;5115430;28;20079;-52
2024/03/02 06:23:56;;;;;;;20.00;8.10;;;17.60;74.50;;;;;;5108255;28;20113;-53
2024/03/02 06:26:23;;;;;;;31.77;17.58;;;17.60;74.80;;;;;;5108111;27;20064;-56
2024/03/02 06:28:49;;;;;;;21.90;3.55;;;17.60;75.20;;;;;;5108132;28;20143;-58
2024/03/02 06:31:15;;;;;;;14.30;2.80;;;17.50;75.30;;;;;;5107761;28;20431;-56
2024/03/02 06:33:42;;;;;;;12.55;2.50;;;17.50;75.50;;;;;;5110600;28;20068;-52
2024/03/02 06:36:09;;;;;;;33.53;15.35;;;17.50;75.50;;;;;;5104706;28;20184;-62
2024/03/02 06:38:36;;;;;;;39.40;18.00;;;17.40;75.60;;;;;;5104484;28;20116;-56
2024/03/02 06:41:02;;;;;;;19.25;5.15;;;17.40;75.10;;;;;;5106462;28;20068;-55
2024/03/02 06:43:29;;;;;;;13.73;2.75;;;17.40;75.20;;;;;;5100505;28;20071;-52
2024/03/02 06:45:55;;;;;;;25.27;17.23;;;17.40;75.10;;;;;;5108145;27;20075;-55
2024/03/02 06:48:22;;;;;;;15.80;3.05;;;17.40;75.10;;;;;;5109618;27;20158;-53
2024/03/02 06:50:49;;;;;;;14.05;2.67;;;17.30;75.10;;;;;;5109151;27;20076;-51
2024/03/02 06:53:19;;;;;;;20.13;2.83;;;17.30;75.10;;;;;;5106726;28;20137;-53
2024/03/02 06:55:46;;;;;;;21.48;8.25;;;17.30;75.20;;;;;;5103082;28;20081;-56
2024/03/02 06:58:15;;;;;;;10.70;2.67;;;17.30;75.20;;;;;;5085013;28;20105;-52
2024/03/02 07:00:42;;;;;;;14.00;2.97;;;17.30;75.30;;;;;;5106541;28;20072;-54
2024/03/02 07:03:08;;;;;;;9.10;3.20;;;17.30;74.90;;;;;;5105982;28;20079;-55
2024/03/02 07:05:35;;;;;;;18.02;3.63;;;17.30;74.70;;;;;;5108245;28;20129;-54
2024/03/02 07:08:02;;;;;;;19.25;2.70;;;17.30;74.70;;;;;;5105634;28;20060;-55
2024/03/02 07:10:29;;;;;;;11.25;2.80;;;17.20;74.90;;;;;;5102450;28;20529;-53
2024/03/02 07:12:55;;;;;;;22.73;3.00;;;17.20;75.40;;;;;;5111744;27;20080;-54
2024/03/02 07:17:54;;;;;;;23.80;3.30;;;17.20;76.20;;;;;;5112557;28;20126;-52
2024/03/02 07:20:20;;;;;;;20.55;3.55;;;17.10;76.80;;;;;;5110062;27;20100;-60
2024/03/02 07:22:47;;;;;;;20.67;3.10;;;17.10;77.10;;;;;;5094016;28;20069;-53
2024/03/02 07:25:14;;;;;;;28.05;3.53;;;17.00;77.40;;;;;;5100437;28;20080;-52
2024/03/02 07:27:40;;;;;;;18.55;2.80;;;17.00;77.80;;;;;;5114067;27;20071;-54
2024/03/02 07:30:07;;;;;;;21.55;3.30;;;17.00;77.90;;;;;;5114365;28;20064;-55
2024/03/02 07:32:34;;;;;;;22.17;3.45;;;17.00;78.20;;;;;;5111271;28;20558;-57
2024/03/02 07:35:01;;;;;;;35.75;4.30;;;16.90;78.60;;;;;;5099654;28;20075;-56
2024/03/02 07:37:28;;;;;;;34.22;3.75;;;16.80;78.80;;;;;;5105784;28;20072;-53
2024/03/02 07:39:54;;;;;;;49.22;4.88;;;16.80;79.10;;;;;;5098552;28;20146;-60
2024/03/02 07:42:21;;;;;;;56.15;5.22;;;16.80;79.60;;;;;;5105906;28;20498;-57
2024/03/02 07:44:47;;;;;;;78.22;5.20;;;16.80;79.70;;;;;;5107682;28;20072;-61
2024/03/02 07:47:14;;;;;;;69.90;5.47;;;16.70;79.80;;;;;;5109750;28;20159;-59
2024/03/02 07:49:41;;;;;;;59.78;4.70;;;16.70;80.10;;;;;;5109645;28;20090;-63
2024/03/02 07:52:07;;;;;;;46.75;6.00;;;16.60;80.30;;;;;;5107072;27;20064;-56
2024/03/02 07:54:34;;;;;;;36.20;3.97;;;16.60;80.60;;;;;;5103573;28;20099;-61
2024/03/02 07:57:01;;;;;;;32.95;3.80;;;16.60;80.30;;;;;;5099938;28;20076;-60
2024/03/02 07:59:27;;;;;;;28.20;3.50;;;16.60;80.30;;;;;;5102899;28;20096;-61
2024/03/02 08:01:55;;;;;;;50.65;19.67;;;16.60;79.80;;;;;;5104554;28;20072;-59
2024/03/02 08:04:21;;;;;;;26.67;3.67;;;16.60;79.90;;;;;;5103402;28;20107;-59
2024/03/02 08:06:48;;;;;;;35.83;3.58;;;16.60;79.60;;;;;;5104404;28;20097;-60
2024/03/02 08:09:14;;;;;;;32.05;3.65;;;16.60;79.20;;;;;;5103835;28;20076;-58
2024/03/02 08:11:41;;;;;;;39.80;3.55;;;16.60;78.70;;;;;;5100144;27;20064;-62
2024/03/02 08:14:07;;;;;;;28.15;3.47;;;16.70;78.40;;;;;;5104601;28;20459;-58
2024/03/02 08:16:34;;;;;;;26.10;2.88;;;16.60;78.20;;;;;;5107289;28;20076;-55
2024/03/02 08:19:00;;;;;;;20.25;3.33;;;16.70;77.70;;;;;;5103721;28;20104;-57
2024/03/02 08:21:30;;;;;;;21.50;2.83;;;16.70;77.00;;;;;;5109126;28;20506;-59
2024/03/02 08:23:58;;;;;;;22.98;3.70;;;16.80;76.50;;;;;;5107972;28;20167;-60
2024/03/02 08:26:25;;;;;;;19.10;3.00;;;16.80;76.20;;;;;;5105773;27;20074;-58
2024/03/02 08:28:51;;;;;;;16.40;2.83;;;16.80;76.00;;;;;;5104399;28;20072;-58
2024/03/02 08:31:17;;;;;;;17.25;2.42;;;16.80;76.30;;;;;;5105586;27;20099;-60
2024/03/02 08:33:44;;;;;;;18.10;3.88;;;16.80;76.10;;;;;;5105798;27;20108;-60
2024/03/02 08:36:11;;;;;;;12.50;2.40;;;16.80;76.10;;;;;;5109328;28;20104;-57
2024/03/02 08:38:37;;;;;;;17.33;2.78;;;16.70;76.30;;;;;;5107993;28;20206;-60
2024/03/02 08:41:04;;;;;;;16.13;2.10;;;16.70;76.40;;;;;;5106539;28;20075;-60
2024/03/02 08:43:31;;;;;;;18.60;2.75;;;16.70;76.40;;;;;;5105093;28;20076;-60
2024/03/02 08:45:58;;;;;;;19.55;3.03;;;16.70;75.80;;;;;;5120280;27;20073;-66
2024/03/02 08:48:24;;;;;;;18.63;2.80;;;16.70;75.70;;;;;;5107038;28;20071;-60
2024/03/02 08:50:51;;;;;;;23.20;2.53;;;16.80;75.50;;;;;;5107539;28;20068;-58
2024/03/02 08:53:20;;;;;;;19.50;2.95;;;16.70;75.10;;;;;;5108876;27;20522;-58
2024/03/02 08:55:47;;;;;;;20.30;3.05;;;16.70;74.80;;;;;;5103977;28;20426;-56
2024/03/02 08:58:13;;;;;;;18.63;2.50;;;16.70;74.70;;;;;;5105152;28;20536;-60
2024/03/02 09:00:40;;;;;;;18.23;2.65;;;16.70;74.70;;;;;;5107333;28;20072;-58
2024/03/02 09:03:07;;;;;;;12.65;2.15;;;16.70;74.70;;;;;;5102460;28;20557;-54
2024/03/02 09:05:34;;;;;;;8.43;2.20;;;16.70;74.40;;;;;;5100979;28;20098;-54
2024/03/02 09:08:00;;;;;;;13.77;2.58;;;16.60;74.10;;;;;;5104671;28;20068;-51
2024/03/02 09:10:27;;;;;;;11.32;2.53;;;16.60;74.00;;;;;;5104120;28;20176;-51
2024/03/02 09:12:54;;;;;;;13.68;1.85;;;16.70;73.40;;;;;;5105664;28;20425;-54
2024/03/02 09:15:21;;;;;;;7.82;2.20;;;16.70;74.10;;;;;;5103193;28;20534;-51
2024/03/02 09:17:47;;;;;;;10.27;1.90;;;16.60;74.40;;;;;;5103039;28;20126;-50
2024/03/02 09:20:14;;;;;;;7.25;1.90;;;16.60;74.80;;;;;;5104493;28;20534;-52
2024/03/02 09:22:41;;;;;;;9.20;1.98;;;16.60;75.00;;;;;;5102097;28;20064;-52
2024/03/02 09:25:08;;;;;;;7.55;2.13;;;16.60;75.60;;;;;;5102005;27;20072;-53
2024/03/02 09:27:38;;;;;;;10.70;2.08;;;16.60;74.70;;;;;;5094694;28;20064;-56
2024/03/02 09:30:10;;;;;;;10.85;1.80;;;16.60;74.20;;;;;;5107122;28;20079;-50
2024/03/02 09:32:37;;;;;;;29.83;17.83;;;16.60;73.70;;;;;;5093681;28;20122;-52
2024/03/02 09:35:04;;;;;;;25.33;17.15;;;16.70;72.90;;;;;;5106285;28;20152;-54
2024/03/02 09:37:30;;;;;;;15.65;2.53;;;16.80;72.10;;;;;;5107089;28;20090;-53
2024/03/02 09:39:57;;;;;;;10.93;2.13;;;16.80;71.90;;;;;;5117166;28;20131;-52
2024/03/02 09:42:24;;;;;;;13.20;2.05;;;16.80;71.20;;;;;;5098166;28;20076;-54
2024/03/02 09:44:50;;;;;;;15.25;2.08;;;16.90;71.30;;;;;;5113068;27;20072;-49
2024/03/02 09:47:17;;;;;;;12.23;2.17;;;16.80;71.80;;;;;;5106324;28;20080;-57
2024/03/02 09:49:43;;;;;;;14.88;1.88;;;16.80;72.30;;;;;;5100327;28;20093;-51
2024/03/02 09:52:11;;;;;;;17.00;2.20;;;16.70;72.90;;;;;;5100514;28;20108;-53
2024/03/02 09:54:38;;;;;;;6.22;1.73;;;16.70;73.60;;;;;;5101118;28;20102;-53
2024/03/02 09:57:05;;;;;;;11.73;2.05;;;16.60;73.80;;;;;;5090434;27;20496;-52
2024/03/02 09:59:31;;;;;;;13.18;2.38;;;16.60;74.20;;;;;;5111244;28;20456;-55
2024/03/02 10:02:06;;;;;;;12.77;2.33;;;16.50;74.50;;;;;;5101489;28;20478;-55
2024/03/02 10:04:37;;;;;;;11.98;2.50;;;16.50;74.50;;;;;;5102928;28;20610;-55
2024/03/02 10:07:17;;;;;;;9.05;2.10;;;16.50;74.40;;;;;;5102542;27;20068;-54
2024/03/02 10:09:48;;;;;;;18.20;2.17;;;16.50;74.50;;;;;;5120795;28;20076;-51
2024/03/02 10:12:16;;;;;;;10.48;1.52;;;16.50;74.40;;;;;;5107437;28;20469;-52
2024/03/02 10:14:44;;;;;;;14.13;2.08;;;16.50;74.50;;;;;;5093572;28;20114;-54
2024/03/02 10:17:12;;;;;;;16.10;1.65;;;16.50;74.30;;;;;;5119527;28;20127;-51
2024/03/02 10:19:39;;;;;;;13.85;1.98;;;16.60;74.30;;;;;;5104626;28;20092;-51
2024/03/02 10:22:07;;;;;;;15.43;2.13;;;16.60;74.00;;;;;;5100331;27;20071;-54
2024/03/02 10:24:47;;;;;;;20.55;2.08;;;16.60;74.00;;;;;;5104267;27;20071;-51
2024/03/02 10:27:23;;;;;;;10.60;1.58;;;16.60;74.10;;;;;;5109611;27;20118;-54
2024/03/02 10:29:50;;;;;;;;;;;16.60;74.20;;;;;;5110623;27;20075;-50
2024/03/02 10:32:17;;;;;;;4.40;1.40;;;16.60;73.90;;;;;;5094464;27;20364;-52
2024/03/02 10:34:47;;;;;;;8.93;1.83;;;16.60;73.90;;;;;;5111972;27;20117;-55
2024/03/02 10:37:14;;;;;;;8.02;1.60;;;16.50;74.00;;;;;;5117409;27;20493;-53
2024/03/02 10:39:41;;;;;;;13.95;1.30;;;16.50;74.00;;;;;;5116433;27;20114;-49
2024/03/02 10:42:08;;;;;;;11.20;1.33;;;16.60;74.10;;;;;;5107036;27;20116;-53
2024/03/02 10:44:35;;;;;;;11.25;1.85;;;16.50;74.00;;;;;;5106607;27;20511;-51
2024/03/02 10:47:05;;;;;;;14.88;1.67;;;16.50;74.10;;;;;;5108252;27;20117;-53
2024/03/02 10:49:32;;;;;;;11.10;2.20;;;16.50;74.20;;;;;;5117807;27;20071;-54
2024/03/02 10:51:59;;;;;;;11.02;2.05;;;16.50;74.50;;;;;;5101591;27;20073;-55
2024/03/02 10:54:26;;;;;;;13.43;1.40;;;16.50;74.60;;;;;;5101067;27;20091;-54
2024/03/02 10:56:57;;;;;;;12.45;1.88;;;16.50;74.60;;;;;;5104101;27;20103;-51
2024/03/02 10:59:34;;;;;;;12.38;2.00;;;16.50;74.80;;;;;;5103025;27;20096;-61
2024/03/02 11:02:02;;;;;;;20.85;2.05;;;16.60;75.00;;;;;;5102538;27;20142;-50
2024/03/02 11:04:31;;;;;;;17.85;2.25;;;16.60;75.00;;;;;;5111420;27;20151;-48
2024/03/02 11:07:04;;;;;;;34.67;2.17;;;16.60;75.30;;;;;;5111495;27;20067;-50
2024/03/02 11:09:35;;;;;;;34.50;2.80;;;16.60;75.60;;;;;;5108077;27;20159;-54
2024/03/02 11:12:11;;;;;;;21.58;2.28;;;16.60;75.70;;;;;;5107083;27;20067;-50
2024/03/02 11:14:45;;;;;;;11.93;2.00;;;16.50;75.80;;;;;;5110797;27;20132;-52
2024/03/02 11:17:13;;;;;;;14.25;1.83;;;16.50;76.00;;;;;;5107380;27;20123;-51
2024/03/02 11:19:40;;;;;;;15.60;2.10;;;16.50;76.30;;;;;;5099506;27;20107;-54
2024/03/02 11:22:08;;;;;;;15.85;2.05;;;16.40;76.50;;;;;;5118446;27;20422;-50
2024/03/02 11:24:35;;;;;;;14.93;1.67;;;16.40;76.60;;;;;;5091607;27;20525;-51
2024/03/02 11:27:13;;;;;;;9.68;1.27;;;16.40;76.70;;;;;;5094767;28;20075;-57
2024/03/02 11:29:39;;;;;;;11.63;1.58;;;16.40;77.00;;;;;;5108123;27;20110;-49
2024/03/02 11:32:16;;;;;;;23.98;1.70;;;16.40;77.10;;;;;;5104678;27;20523;-50
2024/03/02 11:34:49;;;;;;;15.65;1.95;;;16.40;77.20;;;;;;5103878;27;20063;-53
2024/03/02 11:37:18;;;;;;;8.90;1.13;;;16.40;77.40;;;;;;5093399;27;20557;-50
2024/03/02 11:39:50;;;;;;;10.27;1.17;;;16.40;77.50;;;;;;5107589;27;20101;-53
2024/03/02 11:42:17;;;;;;;6.90;1.20;;;16.50;77.50;;;;;;5101006;27;20065;-49
2024/03/02 11:44:46;;;;;;;8.32;1.08;;;16.50;77.50;;;;;;5112341;27;20092;-51
2024/03/02 11:47:14;;;;;;;8.02;0.65;;;16.50;77.70;;;;;;5114768;27;20076;-51
2024/03/02 11:49:51;;;;;;;12.75;1.25;;;16.50;77.80;;;;;;5090456;27;20072;-54
2024/03/02 11:52:18;;;;;;;29.40;2.00;;;16.50;77.80;;;;;;5123408;27;20111;-51
2024/03/02 11:54:46;;;;;;;7.88;0.98;;;16.60;77.90;;;;;;5110763;27;20072;-55
2024/03/02 11:57:17;;;;;;;2.67;0.75;;;16.60;77.90;;;;;;5098847;27;20064;-54
2024/03/02 11:59:44;;;;;;;3.65;0.70;;;16.50;78.10;;;;;;5115190;27;20103;-52
2024/03/02 12:02:19;;;;;;;6.13;0.68;;;16.50;78.10;;;;;;5105222;27;20528;-53
2024/03/02 12:04:48;;;;;;;4.47;0.60;;;16.50;78.30;;;;;;5124790;27;20083;-52
2024/03/02 12:07:22;;;;;;;4.80;0.82;;;16.60;78.70;;;;;;5107878;27;20064;-54
2024/03/02 12:09:50;;;;;;;5.60;0.82;;;16.60;78.50;;;;;;5103474;27;20064;-51
2024/03/02 12:12:22;;;;;;;6.38;0.70;;;16.60;78.60;;;;;;5098721;27;20384;-50
2024/03/02 12:14:55;;;;;;;3.95;0.75;;;16.50;78.80;;;;;;5120040;27;20087;-51
2024/03/02 12:17:22;;;;;;;4.85;0.65;;;16.60;79.00;;;;;;5110117;27;20123;-52
2024/03/02 12:19:49;;;;;;;5.63;0.73;;;16.50;79.00;;;;;;5111012;27;20096;-54
2024/03/02 12:22:15;;;;;;;1.50;0.52;;;16.60;79.00;;;;;;5112392;27;20115;-50
2024/03/02 12:24:45;;;;;;;0.93;0.60;;;16.60;78.90;;;;;;5124777;27;20416;-53
2024/03/02 12:27:13;;;;;;;2.83;0.68;;;16.60;79.40;;;;;;5114303;27;20370;-51
2024/03/02 12:29:40;;;;;;;2.08;0.75;;;16.50;79.20;;;;;;5111750;27;20074;-52
2024/03/02 12:32:07;;;;;;;2.65;0.50;;;16.50;79.40;;;;;;5103230;27;20068;-50
2024/03/02 12:34:33;;;;;;;1.42;0.73;;;16.50;79.60;;;;;;5099047;27;20076;-54
2024/03/02 12:36:59;;;;;;;4.55;0.70;;;16.50;79.70;;;;;;5117469;27;20064;-51
2024/03/02 12:39:27;;;;;;;9.00;0.60;;;16.50;79.80;;;;;;5104503;27;20097;-53
2024/03/02 12:41:54;;;;;;;14.13;1.00;;;16.50;80.00;;;;;;5102308;27;20081;-53
2024/03/02 12:44:20;;;;;;;17.90;1.80;;;16.60;79.60;;;;;;5100794;27;20141;-52
2024/03/02 12:46:47;;;;;;;9.70;1.00;;;16.80;79.20;;;;;;5107500;27;20184;-54
2024/03/02 12:49:20;;;;;;;6.78;0.80;;;16.80;79.20;;;;;;5104930;27;20125;-49